createdAt,value
2018-12-27T00:01:33.809Z,194.75
2018-12-27T00:04:05.157Z,203.25
2018-12-27T00:06:36.548Z,191.75
2018-12-27T00:09:09.079Z,193.75
2018-12-27T00:11:40.417Z,203.25
2018-12-27T00:14:12.791Z,196.50
2018-12-27T00:16:44.366Z,197.50
2018-12-27T00:19:15.973Z,198.50
2018-12-27T00:21:47.954Z,205.00
2018-12-27T00:24:19.312Z,191.25
2018-12-27T00:26:50.952Z,195.75
2018-12-27T00:29:23.367Z,209.50
2018-12-27T00:31:54.820Z,183.00
2018-12-27T00:34:26.048Z,188.50
2018-12-27T00:36:57.302Z,204.00
2018-12-27T00:39:28.430Z,195.25
2018-12-27T00:42:00.600Z,207.75
2018-12-27T00:44:32.382Z,189.75
2018-12-27T00:47:04.052Z,185.25
2018-12-27T00:49:35.961Z,196.50
2018-12-27T00:52:07.184Z,205.00
2018-12-27T00:54:38.461Z,202.25
2018-12-27T00:57:09.670Z,181.75
2018-12-27T00:59:40.985Z,187.75
2018-12-27T01:02:13.451Z,196.25
2018-12-27T01:04:44.759Z,198.50
2018-12-27T01:07:16.500Z,178.25
2018-12-27T01:09:47.885Z,205.00
2018-12-27T01:12:19.264Z,198.00
2018-12-27T01:14:51.173Z,184.00
2018-12-27T01:17:22.321Z,192.25
2018-12-27T01:19:53.671Z,198.50
2018-12-27T01:22:25.294Z,206.00
2018-12-27T01:24:56.974Z,201.60
2018-12-27T01:27:28.388Z,198.80
2018-12-27T01:29:59.845Z,190.50
2018-12-27T01:32:31.485Z,204.20
2018-12-27T01:35:03.161Z,187.20
2018-12-27T01:37:34.836Z,202.40
2018-12-27T01:40:06.236Z,188.60
2018-12-27T01:42:37.518Z,192.00
2018-12-27T01:45:09.370Z,197.00
2018-12-27T01:47:40.790Z,180.50
2018-12-27T01:50:12.332Z,185.25
2018-12-27T01:52:43.949Z,206.00
2018-12-27T01:55:15.688Z,196.25
2018-12-27T01:57:47.345Z,208.80
2018-12-27T02:00:19.066Z,208.40
2018-12-27T02:02:50.332Z,183.60
2018-12-27T02:05:22.022Z,204.20
2018-12-27T02:07:53.927Z,200.00
2018-12-27T02:10:25.185Z,215.00
2018-12-27T02:12:56.649Z,219.80
2018-12-27T02:15:28.517Z,215.40
2018-12-27T02:17:59.707Z,223.20
2018-12-27T02:20:31.425Z,195.60
2018-12-27T02:23:02.607Z,199.00
2018-12-27T02:25:34.051Z,232.25
2018-12-27T02:28:05.269Z,234.00
2018-12-27T02:30:36.601Z,225.80
2018-12-27T02:33:08.580Z,221.00
2018-12-27T02:35:40.452Z,218.00
2018-12-27T02:38:12.462Z,224.00
2018-12-27T02:40:43.805Z,226.25
2018-12-27T02:43:15.346Z,236.50
2018-12-27T02:45:46.957Z,234.50
2018-12-27T02:48:18.292Z,223.25
2018-12-27T02:50:49.840Z,227.80
2018-12-27T02:53:21.366Z,227.75
2018-12-27T02:55:52.940Z,241.80
2018-12-27T02:58:24.067Z,245.60
2018-12-27T03:00:55.149Z,236.00
2018-12-27T03:03:26.458Z,234.50
2018-12-27T03:05:57.950Z,216.60
2018-12-27T03:08:29.280Z,230.80
2018-12-27T03:11:00.520Z,216.20
2018-12-27T03:13:31.781Z,220.80
2018-12-27T03:16:03.385Z,191.00
2018-12-27T03:18:34.747Z,218.20
2018-12-27T03:21:06.060Z,227.60
2018-12-27T03:23:37.418Z,232.20
2018-12-27T03:26:08.575Z,211.40
2018-12-27T03:28:39.844Z,216.00
2018-12-27T03:31:11.102Z,219.40
2018-12-27T03:33:42.675Z,245.40
2018-12-27T03:36:14.248Z,240.00
2018-12-27T03:38:46.267Z,249.80
2018-12-27T03:41:17.719Z,253.80
2018-12-27T03:43:49.351Z,255.20
2018-12-27T03:46:21.325Z,236.40
2018-12-27T03:48:53.092Z,263.40
2018-12-27T03:51:24.419Z,254.00
2018-12-27T03:53:55.656Z,278.40
2018-12-27T03:56:27.325Z,269.20
2018-12-27T03:58:58.702Z,285.80
2018-12-27T04:01:29.917Z,274.00
2018-12-27T04:04:01.799Z,293.67
2018-12-27T04:06:33.223Z,289.33
2018-12-27T04:09:05.455Z,288.33
2018-12-27T04:11:36.728Z,299.67
2018-12-27T04:14:08.097Z,308.33
2018-12-27T04:16:40.039Z,293.33
2018-12-27T04:19:11.590Z,303.33
2018-12-27T04:21:42.958Z,302.50
2018-12-27T04:24:15.101Z,284.50
2018-12-27T04:26:46.371Z,297.00
2018-12-27T04:29:18.224Z,298.50
2018-12-27T04:31:50.797Z,276.80
2018-12-27T04:34:22.656Z,278.00
2018-12-27T04:36:56.194Z,261.80
2018-12-27T04:39:28.416Z,259.60
2018-12-27T04:42:00.400Z,275.80
2018-12-27T04:44:32.294Z,259.60
2018-12-27T04:47:04.778Z,268.33
2018-12-27T04:49:36.418Z,270.83
2018-12-27T04:52:08.110Z,265.00
2018-12-27T04:54:39.672Z,252.67
2018-12-27T04:57:11.000Z,231.60
2018-12-27T04:59:42.643Z,259.00
2018-12-27T05:02:13.949Z,250.40
2018-12-27T05:04:45.237Z,248.40
2018-12-27T05:07:16.551Z,250.20
2018-12-27T05:09:47.566Z,240.00
2018-12-27T05:12:18.768Z,227.00
2018-12-27T05:14:49.980Z,213.60
2018-12-27T05:17:21.873Z,191.00
2018-12-27T05:19:53.072Z,191.00
2018-12-27T05:22:24.261Z,198.25
2018-12-27T05:24:55.553Z,193.00
2018-12-27T05:27:26.583Z,177.50
2018-12-27T05:29:57.704Z,177.00
2018-12-27T05:32:28.863Z,191.50
2018-12-27T05:34:59.903Z,187.75
2018-12-27T05:37:31.529Z,156.75
2018-12-27T05:40:02.755Z,170.25
2018-12-27T05:42:34.590Z,187.50
2018-12-27T05:45:06.261Z,184.75
2018-12-27T05:47:38.082Z,186.00
2018-12-27T05:50:09.659Z,180.25
2018-12-27T05:52:43.077Z,175.25
2018-12-27T05:55:15.222Z,166.00
2018-12-27T05:57:47.141Z,164.00
2018-12-27T06:00:18.705Z,162.00
2018-12-27T06:02:50.117Z,144.50
2018-12-27T06:05:21.578Z,142.25
2018-12-27T06:07:52.946Z,140.25
2018-12-27T06:10:24.387Z,125.00
2018-12-27T06:12:55.632Z,129.50
2018-12-27T06:15:26.887Z,128.00
2018-12-27T06:17:58.527Z,119.00
2018-12-27T06:20:29.621Z,121.75
2018-12-27T06:23:01.162Z,113.00
2018-12-27T06:25:32.270Z,108.50
2018-12-27T06:28:03.933Z,108.75
2018-12-27T06:30:35.576Z,93.50
2018-12-27T06:33:07.236Z,87.40
2018-12-27T06:35:38.562Z,86.60
2018-12-27T06:38:10.119Z,90.40
2018-12-27T06:40:41.654Z,80.60
2018-12-27T06:43:13.261Z,75.20
2018-12-27T06:45:44.883Z,74.00
2018-12-27T06:48:16.830Z,86.40
2018-12-27T06:50:48.505Z,78.80
2018-12-27T06:53:20.246Z,78.60
2018-12-27T06:55:54.939Z,78.40
2018-12-27T06:58:29.373Z,79.60
2018-12-27T07:01:02.685Z,78.20
2018-12-27T07:03:36.304Z,73.40
2018-12-27T07:06:09.946Z,67.00
2018-12-27T07:08:45.222Z,73.60
2018-12-27T07:11:17.501Z,76.00
2018-12-27T07:13:52.009Z,79.40
2018-12-27T07:16:23.893Z,79.00
2018-12-27T07:18:55.692Z,75.00
2018-12-27T07:21:27.404Z,66.80
2018-12-27T07:23:58.682Z,72.40
2018-12-27T07:26:33.957Z,71.20
2018-12-27T07:29:05.653Z,70.00
2018-12-27T07:31:37.016Z,77.60
2018-12-27T07:34:08.278Z,72.60
2018-12-27T07:36:47.162Z,70.60
2018-12-27T07:39:18.390Z,73.80
2018-12-27T07:41:49.930Z,68.00
2018-12-27T07:44:21.120Z,66.00
2018-12-27T07:46:52.365Z,74.00
2018-12-27T07:49:24.049Z,62.00
2018-12-27T07:51:55.349Z,70.40
2018-12-27T07:54:29.026Z,62.80
2018-12-27T07:57:04.499Z,68.80
2018-12-27T07:59:35.753Z,68.60
2018-12-27T08:02:07.410Z,63.20
2018-12-27T08:04:38.785Z,62.60
2018-12-27T08:07:09.876Z,56.60
2018-12-27T08:09:41.631Z,59.00
2018-12-27T08:12:14.649Z,60.20
2018-12-27T08:14:45.915Z,59.20
2018-12-27T08:17:17.334Z,62.80
2018-12-27T08:19:49.069Z,57.20
2018-12-27T08:22:20.215Z,54.80
2018-12-27T08:24:51.465Z,59.60
2018-12-27T08:27:22.744Z,56.20
2018-12-27T08:29:54.213Z,52.80
2018-12-27T08:32:25.624Z,54.60
2018-12-27T08:34:57.921Z,60.00
2018-12-27T08:37:33.522Z,58.00
2018-12-27T08:40:06.629Z,57.80
2018-12-27T08:42:38.187Z,60.80
2018-12-27T08:45:09.695Z,63.00
2018-12-27T08:47:41.431Z,67.40
2018-12-27T08:50:13.498Z,58.80
2018-12-27T08:52:44.921Z,82.80
2018-12-27T08:55:16.440Z,82.20
2018-12-27T08:57:55.885Z,88.40
2018-12-27T09:00:28.013Z,80.20
2018-12-27T09:02:59.374Z,87.80
2018-12-27T09:05:30.925Z,67.60
2018-12-27T09:08:02.263Z,66.80
2018-12-27T09:10:33.735Z,67.80
2018-12-27T09:13:05.158Z,61.60
2018-12-27T09:15:36.922Z,55.00
2018-12-27T09:18:08.588Z,61.60
2018-12-27T09:20:41.797Z,59.40
2018-12-27T09:23:13.423Z,60.80
2018-12-27T09:25:45.641Z,61.20
2018-12-27T09:28:17.363Z,52.40
2018-12-27T09:30:48.824Z,61.20
2018-12-27T09:33:20.429Z,56.80
2018-12-27T09:35:56.950Z,56.80
2018-12-27T09:38:28.974Z,56.20
2018-12-27T09:41:00.320Z,59.40
2018-12-27T09:43:31.776Z,52.80
2018-12-27T09:46:08.176Z,54.80
2018-12-27T09:48:39.738Z,59.40
2018-12-27T09:51:11.563Z,52.00
2018-12-27T09:53:43.459Z,61.20
2018-12-27T09:56:14.894Z,57.00
2018-12-27T09:58:46.578Z,60.20
2018-12-27T10:01:18.155Z,60.80
2018-12-27T10:03:49.420Z,61.20
2018-12-27T10:06:20.810Z,63.00
2018-12-27T10:08:52.375Z,57.80
2018-12-27T10:11:23.985Z,53.80
2018-12-27T10:13:55.427Z,59.20
2018-12-27T10:16:26.913Z,62.00
2018-12-27T10:18:58.806Z,58.00
2018-12-27T10:21:33.678Z,60.20
2018-12-27T10:24:06.449Z,59.40
2018-12-27T10:26:37.936Z,62.20
2018-12-27T10:29:09.437Z,61.00
2018-12-27T10:31:40.835Z,61.60
2018-12-27T10:34:12.658Z,60.60
2018-12-27T10:36:44.484Z,63.60
2018-12-27T10:39:15.989Z,65.00
2018-12-27T10:41:47.333Z,62.20
2018-12-27T10:44:18.741Z,63.60
2018-12-27T10:46:49.815Z,62.80
2018-12-27T10:49:21.425Z,61.60
2018-12-27T10:51:53.101Z,66.60
2018-12-27T10:54:24.580Z,64.80
2018-12-27T10:56:55.813Z,60.00
2018-12-27T10:59:27.371Z,66.80
2018-12-27T11:01:58.722Z,67.40
2018-12-27T11:04:30.295Z,62.00
2018-12-27T11:07:01.597Z,71.00
2018-12-27T11:09:33.296Z,69.00
2018-12-27T11:12:04.703Z,71.80
2018-12-27T11:14:36.400Z,67.80
2018-12-27T11:17:07.920Z,64.40
2018-12-27T11:19:41.891Z,64.20
2018-12-27T11:22:13.877Z,67.40
2018-12-27T11:24:45.323Z,70.40
2018-12-27T11:27:16.797Z,68.80
2018-12-27T11:29:48.444Z,67.20
2018-12-27T11:32:20.307Z,70.60
2018-12-27T11:34:51.517Z,72.40
2018-12-27T11:37:23.218Z,68.00
2018-12-27T11:39:54.650Z,69.40
2018-12-27T11:42:25.882Z,72.80
2018-12-27T11:44:57.330Z,75.40
2018-12-27T11:47:28.597Z,70.20
2018-12-27T11:50:00.010Z,71.60
2018-12-27T11:52:31.930Z,65.80
2018-12-27T11:55:03.476Z,74.20
2018-12-27T11:57:34.797Z,71.60
2018-12-27T12:00:06.756Z,81.40
2018-12-27T12:02:38.050Z,81.20
2018-12-27T12:05:09.520Z,76.20
2018-12-27T12:07:40.806Z,82.80
2018-12-27T12:10:12.469Z,91.20
2018-12-27T12:12:44.149Z,99.80
2018-12-27T12:15:15.751Z,107.75
2018-12-27T12:17:47.242Z,113.25
2018-12-27T12:20:19.009Z,113.75
2018-12-27T12:22:50.744Z,122.75
2018-12-27T12:25:22.085Z,122.25
2018-12-27T12:27:53.712Z,125.25
2018-12-27T12:30:25.148Z,128.00
2018-12-27T12:32:56.667Z,133.25
2018-12-27T12:35:28.295Z,136.25
2018-12-27T12:38:00.612Z,132.50
2018-12-27T12:40:31.971Z,138.25
2018-12-27T12:43:03.197Z,133.00
2018-12-27T12:45:34.594Z,150.00
2018-12-27T12:48:06.063Z,144.25
2018-12-27T12:50:37.417Z,153.25
2018-12-27T12:53:10.524Z,144.25
2018-12-27T12:55:41.829Z,154.00
2018-12-27T12:58:13.563Z,156.00
2018-12-27T13:00:44.905Z,162.25
2018-12-27T13:03:16.341Z,168.75
2018-12-27T13:05:47.612Z,155.50
2018-12-27T13:08:19.316Z,159.50
2018-12-27T13:10:50.656Z,163.00
2018-12-27T13:13:21.934Z,160.50
2018-12-27T13:15:53.171Z,163.75
2018-12-27T13:18:24.470Z,156.75
2018-12-27T13:20:55.860Z,164.50
2018-12-27T13:23:27.395Z,152.25
2018-12-27T13:25:58.956Z,154.00
2018-12-27T13:28:30.222Z,161.50
2018-12-27T13:31:02.058Z,152.75
2018-12-27T13:33:33.630Z,155.25
2018-12-27T13:36:05.155Z,156.25
2018-12-27T13:38:36.668Z,144.00
2018-12-27T13:41:08.378Z,147.75
2018-12-27T13:43:39.750Z,144.00
2018-12-27T13:46:12.507Z,130.50
2018-12-27T13:48:44.247Z,134.00
2018-12-27T13:51:15.752Z,117.75
2018-12-27T13:53:47.239Z,117.50
2018-12-27T13:56:18.904Z,123.25
2018-12-27T13:58:50.302Z,119.75
2018-12-27T14:01:21.504Z,115.50
2018-12-27T14:03:52.758Z,123.25
2018-12-27T14:06:24.531Z,111.50
2018-12-27T14:08:56.253Z,117.50
2018-12-27T14:11:27.861Z,115.25
2018-12-27T14:13:59.442Z,123.75
2018-12-27T14:16:31.164Z,131.50
2018-12-27T14:19:02.537Z,127.25
2018-12-27T14:21:33.997Z,135.50
2018-12-27T14:24:09.761Z,137.25
2018-12-27T14:26:40.953Z,143.25
2018-12-27T14:29:12.409Z,141.00
2018-12-27T14:31:43.916Z,152.00
2018-12-27T14:34:16.701Z,143.50
2018-12-27T14:36:47.933Z,156.75
2018-12-27T14:39:19.923Z,142.25
2018-12-27T14:41:51.693Z,160.00
2018-12-27T14:44:22.963Z,150.00
2018-12-27T14:46:54.463Z,149.00
2018-12-27T14:49:25.862Z,142.00
2018-12-27T14:51:57.250Z,139.25
2018-12-27T14:54:29.251Z,133.75
2018-12-27T14:57:00.719Z,136.50
2018-12-27T14:59:31.936Z,144.25
2018-12-27T15:02:03.539Z,142.00
2018-12-27T15:04:35.253Z,138.50
2018-12-27T15:07:06.791Z,140.50
2018-12-27T15:09:38.059Z,148.75
2018-12-27T15:12:09.520Z,145.00
2018-12-27T15:14:40.687Z,146.50
2018-12-27T15:17:12.223Z,142.25
2018-12-27T15:19:43.453Z,141.00
2018-12-27T15:22:14.620Z,141.00
2018-12-27T15:24:46.500Z,153.25
2018-12-27T15:27:18.102Z,147.75
2018-12-27T15:29:54.010Z,159.25
2018-12-27T15:32:27.556Z,164.00
2018-12-27T15:34:59.120Z,147.25
2018-12-27T15:37:30.691Z,152.25
2018-12-27T15:40:02.171Z,166.75
2018-12-27T15:42:33.646Z,165.75
2018-12-27T15:45:05.257Z,166.50
2018-12-27T15:47:36.517Z,157.75
2018-12-27T15:50:08.331Z,159.75
2018-12-27T15:52:39.897Z,160.75
2018-12-27T15:55:11.458Z,168.25
2018-12-27T15:57:43.939Z,162.00
2018-12-27T16:00:15.508Z,160.00
2018-12-27T16:02:48.481Z,166.00
2018-12-27T16:05:19.761Z,174.50
2018-12-27T16:07:51.250Z,161.50
2018-12-27T16:10:22.521Z,168.75
2018-12-27T16:12:53.876Z,164.25
2018-12-27T16:15:25.223Z,158.00
2018-12-27T16:17:56.681Z,166.75
2018-12-27T16:20:28.104Z,161.75
2018-12-27T16:22:59.294Z,160.25
2018-12-27T16:25:31.038Z,159.75
2018-12-27T16:28:02.579Z,156.33
2018-12-27T16:30:34.118Z,158.75
2018-12-27T16:33:05.339Z,155.00
2018-12-27T16:35:36.829Z,148.25
2018-12-27T16:38:08.764Z,148.75
2018-12-27T16:40:40.389Z,139.75
2018-12-27T16:43:11.518Z,133.25
2018-12-27T16:45:43.107Z,127.75
2018-12-27T16:48:15.074Z,145.00
2018-12-27T16:50:46.502Z,142.50
2018-12-27T16:53:17.756Z,205.00
2018-12-27T16:55:49.566Z,190.50
2018-12-27T16:58:21.047Z,170.00
2018-12-27T17:00:52.337Z,165.50
2018-12-27T17:03:24.011Z,147.25
2018-12-27T17:05:56.479Z,154.25
2018-12-27T17:08:28.022Z,151.25
2018-12-27T17:10:59.360Z,146.50
2018-12-27T17:13:30.711Z,151.00
2018-12-27T17:16:02.189Z,145.00
2018-12-27T17:18:33.792Z,134.50
2018-12-27T17:21:05.168Z,135.25
2018-12-27T17:23:36.458Z,136.25
2018-12-27T17:26:08.423Z,140.75
2018-12-27T17:28:40.023Z,131.25
2018-12-27T17:31:11.415Z,129.00
2018-12-27T17:33:42.795Z,136.50
2018-12-27T17:36:14.255Z,139.50
2018-12-27T17:38:45.563Z,140.25
2018-12-27T17:41:16.727Z,165.25
2018-12-27T17:43:48.508Z,147.25
2018-12-27T17:46:20.335Z,129.50
2018-12-27T17:48:52.058Z,125.50
2018-12-27T17:51:23.303Z,134.25
2018-12-27T17:53:54.564Z,127.75
2018-12-27T17:56:27.219Z,131.00
2018-12-27T17:58:58.909Z,138.75
2018-12-27T18:01:30.647Z,128.00
2018-12-27T18:04:02.036Z,128.50
2018-12-27T18:06:33.299Z,138.25
2018-12-27T18:09:05.986Z,125.25
2018-12-27T18:11:37.640Z,126.50
2018-12-27T18:14:09.068Z,131.25
2018-12-27T18:16:40.524Z,126.75
2018-12-27T18:19:11.941Z,129.75
2018-12-27T18:21:43.381Z,137.75
2018-12-27T18:24:14.744Z,125.25
2018-12-27T18:26:46.671Z,134.75
2018-12-27T18:29:18.040Z,123.75
2018-12-27T18:31:49.216Z,121.50
2018-12-27T18:34:20.686Z,121.00
2018-12-27T18:36:51.947Z,115.50
2018-12-27T18:39:23.294Z,119.25
2018-12-27T18:41:54.446Z,120.50
2018-12-27T18:44:25.856Z,113.50
2018-12-27T18:46:57.417Z,109.00
2018-12-27T18:49:28.986Z,110.25
2018-12-27T18:52:00.692Z,109.00
2018-12-27T18:54:31.994Z,107.75
2018-12-27T18:57:03.633Z,110.50
2018-12-27T18:59:34.862Z,107.25
2018-12-27T19:02:06.431Z,112.00
2018-12-27T19:04:38.547Z,107.50
2018-12-27T19:07:09.971Z,102.75
2018-12-27T19:09:41.504Z,107.50
2018-12-27T19:12:47.873Z,102.00
2018-12-27T19:15:22.578Z,103.75
2018-12-27T19:18:23.315Z,99.50
2018-12-27T19:20:59.556Z,97.75
2018-12-27T19:23:31.803Z,90.25
2018-12-27T19:26:02.946Z,97.50
2018-12-27T19:28:34.757Z,98.00
2018-12-27T19:31:06.282Z,96.50
2018-12-27T19:33:38.513Z,96.75
2018-12-27T19:36:10.082Z,103.50
2018-12-27T19:38:41.497Z,97.25
2018-12-27T19:41:12.939Z,96.00
2018-12-27T19:43:44.338Z,89.75
2018-12-27T19:46:17.363Z,99.00
2018-12-27T19:48:51.448Z,92.25
2018-12-27T19:51:22.984Z,102.75
2018-12-27T19:53:54.505Z,94.00
2018-12-27T19:56:26.339Z,98.00
2018-12-27T19:58:57.814Z,95.50
2018-12-27T20:01:29.284Z,89.00
2018-12-27T20:04:00.490Z,95.50
2018-12-27T20:06:33.469Z,92.00
2018-12-27T20:09:06.633Z,91.00
2018-12-27T20:11:37.961Z,97.50
2018-12-27T20:14:09.172Z,87.00
2018-12-27T20:16:41.075Z,88.25
2018-12-27T20:19:12.326Z,91.25
2018-12-27T20:21:43.738Z,87.75
2018-12-27T20:24:14.944Z,87.40
2018-12-27T20:26:46.175Z,95.00
2018-12-27T20:29:17.959Z,94.20
2018-12-27T20:31:49.287Z,93.75
2018-12-27T20:34:20.346Z,86.50
2018-12-27T20:36:51.619Z,92.25
2018-12-27T20:39:22.844Z,90.00
2018-12-27T20:41:54.476Z,95.25
2018-12-27T20:44:25.744Z,90.60
2018-12-27T20:46:56.970Z,91.50
2018-12-27T20:49:28.520Z,87.50
2018-12-27T20:52:00.351Z,82.80
2018-12-27T20:54:31.557Z,90.00
2018-12-27T20:57:03.174Z,86.40
2018-12-27T20:59:35.237Z,85.00
2018-12-27T21:02:06.593Z,86.60
2018-12-27T21:04:38.511Z,91.20
2018-12-27T21:07:10.026Z,85.20
2018-12-27T21:09:41.241Z,89.60
2018-12-27T21:12:12.573Z,84.75
2018-12-27T21:14:44.241Z,84.00
2018-12-27T21:17:15.534Z,87.60
2018-12-27T21:19:46.873Z,86.60
2018-12-27T21:22:18.371Z,84.60
2018-12-27T21:24:50.018Z,79.00
2018-12-27T21:27:21.634Z,87.40
2018-12-27T21:29:53.534Z,88.40
2018-12-27T21:32:25.001Z,85.00
2018-12-27T21:34:56.817Z,83.00
2018-12-27T21:37:28.257Z,83.00
2018-12-27T21:39:59.498Z,86.00
2018-12-27T21:42:30.941Z,81.80
2018-12-27T21:45:02.220Z,84.80
2018-12-27T21:47:34.070Z,83.80
2018-12-27T21:50:05.709Z,79.60
2018-12-27T21:52:37.624Z,86.20
2018-12-27T21:55:08.999Z,81.40
2018-12-27T21:57:40.243Z,78.80
2018-12-27T22:00:12.249Z,79.80
2018-12-27T22:02:43.596Z,83.40
2018-12-27T22:05:14.904Z,76.00
2018-12-27T22:07:46.269Z,77.00
2018-12-27T22:10:17.529Z,73.20
2018-12-27T22:12:48.764Z,76.20
2018-12-27T22:15:19.966Z,79.40
2018-12-27T22:17:51.202Z,80.00
2018-12-27T22:20:22.255Z,73.80
2018-12-27T22:22:53.753Z,79.40
2018-12-27T22:25:24.947Z,71.60
2018-12-27T22:27:56.213Z,81.00
2018-12-27T22:30:28.404Z,70.00
2018-12-27T22:32:59.833Z,72.60
2018-12-27T22:35:30.987Z,73.00
2018-12-27T22:38:02.660Z,76.00
2018-12-27T22:40:34.129Z,79.20
2018-12-27T22:43:05.429Z,71.40
2018-12-27T22:45:36.771Z,81.40
2018-12-27T22:48:08.288Z,71.40
2018-12-27T22:50:39.605Z,74.60
2018-12-27T22:53:11.804Z,78.40
2018-12-27T22:55:55.890Z,67.80
2018-12-27T22:58:27.096Z,72.80
2018-12-27T23:00:59.899Z,74.00
2018-12-27T23:03:31.241Z,74.20
2018-12-27T23:06:02.566Z,78.40
2018-12-27T23:08:34.261Z,75.60
2018-12-27T23:11:06.122Z,72.60
2018-12-27T23:13:37.564Z,75.00
2018-12-27T23:16:09.126Z,67.40
2018-12-27T23:18:40.370Z,75.40
2018-12-27T23:21:11.540Z,76.80
2018-12-27T23:23:43.064Z,67.20
2018-12-27T23:26:14.523Z,73.40
2018-12-27T23:28:46.023Z,78.40
2018-12-27T23:31:18.194Z,74.20
2018-12-27T23:33:49.867Z,72.60
2018-12-27T23:36:21.401Z,71.80
2018-12-27T23:38:53.116Z,69.60
2018-12-27T23:41:24.904Z,71.60
2018-12-27T23:43:56.422Z,70.80
2018-12-27T23:46:27.730Z,70.00
2018-12-27T23:48:58.974Z,70.60
2018-12-27T23:51:30.510Z,71.40
2018-12-27T23:54:02.687Z,74.40
2018-12-27T23:56:34.156Z,68.40
2018-12-27T23:59:05.358Z,68.60
